createdAt,value
2023-05-02T00:00:01.760Z,988.0458
2023-05-02T00:01:01.919Z,987.9747
2023-05-02T00:02:01.461Z,987.9747
2023-05-02T00:03:01.980Z,987.747
2023-05-02T00:05:03.429Z,987.9184
2023-05-02T00:06:02.258Z,987.9621
2023-05-02T00:07:01.800Z,987.8273
2023-05-02T00:08:03.838Z,987.9265
2023-05-02T00:09:01.685Z,987.6852
2023-05-02T00:10:02.370Z,987.7644
2023-05-02T00:11:01.601Z,987.7508
2023-05-02T00:12:02.094Z,987.7795
2023-05-02T00:13:01.529Z,987.9576
2023-05-02T00:14:02.017Z,987.831
2023-05-02T00:15:01.545Z,987.8389
2023-05-02T00:16:02.002Z,988.0023
2023-05-02T00:17:01.517Z,988.0105
2023-05-02T00:18:01.995Z,987.7337
2023-05-02T00:19:01.356Z,987.6914
2023-05-02T00:20:02.263Z,987.7921
2023-05-02T00:22:01.768Z,987.829
2023-05-02T00:23:02.245Z,987.8655
2023-05-02T00:24:03.448Z,987.7945
2023-05-02T00:25:02.205Z,987.7454
2023-05-02T00:26:01.689Z,987.8747
2023-05-02T00:27:02.180Z,987.7027
2023-05-02T00:28:01.628Z,987.8106
2023-05-02T00:29:02.088Z,987.7614
2023-05-02T00:30:01.849Z,987.8474
2023-05-02T00:31:02.041Z,987.8556
2023-05-02T00:32:01.561Z,987.655
2023-05-02T00:33:03.670Z,987.7273
2023-05-02T00:34:01.473Z,987.9845
2023-05-02T00:35:03.523Z,987.9493
2023-05-02T00:36:03.045Z,987.7802
2023-05-02T00:37:03.446Z,987.8877
2023-05-02T00:38:02.243Z,987.8167
2023-05-02T00:39:01.767Z,987.8317
2023-05-02T00:40:02.445Z,987.7744
2023-05-02T00:41:01.691Z,987.9673
2023-05-02T00:42:02.216Z,987.7904
2023-05-02T00:43:01.606Z,987.8338
2023-05-02T00:44:02.215Z,987.8201
2023-05-02T00:45:01.604Z,987.7997
2023-05-02T00:46:02.121Z,987.801
2023-05-02T00:47:01.529Z,987.68
2023-05-02T00:48:02.095Z,987.7492
2023-05-02T00:49:01.540Z,987.8065
2023-05-02T00:50:02.560Z,987.7492
2023-05-02T00:51:01.451Z,987.8501
2023-05-02T00:52:03.612Z,987.7795
2023-05-02T00:53:01.389Z,987.8232
2023-05-02T00:54:01.861Z,987.8024
2023-05-02T00:56:01.768Z,987.6395
2023-05-02T00:57:02.300Z,987.6831
2023-05-02T00:58:01.692Z,987.7404
2023-05-02T00:59:02.167Z,987.634
2023-05-02T01:00:01.991Z,987.785
2023-05-02T01:01:02.179Z,987.7578
2023-05-02T01:02:01.660Z,987.5874
2023-05-02T01:03:02.304Z,987.7384
2023-05-02T01:04:03.356Z,987.7523
2023-05-02T01:05:03.816Z,987.9587
2023-05-02T01:06:01.550Z,987.8678
2023-05-02T01:07:01.998Z,987.7544
2023-05-02T01:08:01.445Z,987.8757
2023-05-02T01:09:02.048Z,987.9389
2023-05-02T01:10:01.669Z,987.7275
2023-05-02T01:11:01.941Z,987.6863
2023-05-02T01:12:01.357Z,987.7377
2023-05-02T01:13:01.929Z,988.0438
2023-05-02T01:14:01.372Z,987.8463
2023-05-02T01:15:01.881Z,987.9235
2023-05-02T01:16:02.394Z,987.733
2023-05-02T01:17:03.437Z,987.7616
2023-05-02T01:18:02.259Z,987.7834
2023-05-02T01:19:01.693Z,987.8052
2023-05-02T01:20:02.412Z,987.7697
2023-05-02T01:21:03.389Z,987.7983
2023-05-02T01:22:02.156Z,987.6635
2023-05-02T01:23:01.597Z,987.7711
2023-05-02T01:24:02.077Z,987.7139
2023-05-02T01:25:01.615Z,987.7286
2023-05-02T01:26:02.080Z,988.0631
2023-05-02T01:27:03.228Z,987.7436
2023-05-02T01:28:03.670Z,987.9205
2023-05-02T01:29:01.521Z,987.8719
2023-05-02T01:30:02.305Z,987.7575
2023-05-02T01:31:03.114Z,987.8715
2023-05-02T01:32:02.064Z,987.8133
2023-05-02T01:33:01.550Z,987.9395
2023-05-02T01:34:01.921Z,987.9811
2023-05-02T01:35:01.369Z,987.8521
2023-05-02T01:36:01.858Z,987.8235
2023-05-02T01:37:01.389Z,987.9934
2023-05-02T01:38:01.862Z,987.8017
2023-05-02T01:39:04.055Z,987.8729
2023-05-02T01:40:02.130Z,987.9638
2023-05-02T01:41:02.256Z,988.0779
2023-05-02T01:42:03.371Z,988.1422
2023-05-02T01:43:02.198Z,987.9842
2023-05-02T01:44:01.688Z,988.1272
2023-05-02T01:45:02.167Z,987.9488
2023-05-02T01:46:01.604Z,987.992
2023-05-02T01:47:03.841Z,987.9488
2023-05-02T01:48:01.637Z,988.2417
2023-05-02T01:49:02.080Z,987.9488
2023-05-02T01:50:01.691Z,987.942
2023-05-02T01:51:02.050Z,988.07
2023-05-02T01:52:01.457Z,987.9692
2023-05-02T01:53:01.943Z,988.0551
2023-05-02T01:54:01.451Z,988.0551
2023-05-02T01:55:01.949Z,988.0837
2023-05-02T01:56:03.084Z,988.07
2023-05-02T01:57:01.856Z,987.992
2023-05-02T01:58:01.362Z,988.07
2023-05-02T01:59:01.857Z,988.1272
2023-05-02T02:00:02.685Z,988.0714
2023-05-02T02:01:01.806Z,988.1432
2023-05-02T02:02:02.270Z,988.1435
2023-05-02T02:03:01.702Z,988.1146
2023-05-02T02:04:02.298Z,988.0645
2023-05-02T02:05:03.376Z,987.943
2023-05-02T02:06:02.269Z,988.1286
2023-05-02T02:07:02.302Z,988.179
2023-05-02T02:08:01.694Z,988.0714
2023-05-02T02:09:03.892Z,987.9787
2023-05-02T02:10:01.935Z,988.0278
2023-05-02T02:11:02.080Z,988.1422
2023-05-02T02:12:01.557Z,988.2267
2023-05-02T02:13:02.082Z,988.1123
2023-05-02T02:14:01.545Z,988.2339
2023-05-02T02:15:01.934Z,988.2739
2023-05-02T02:16:01.454Z,988.2131
2023-05-02T02:17:02.164Z,988.2498
2023-05-02T02:18:01.477Z,988.2576
2023-05-02T02:19:01.864Z,988.2154
2023-05-02T02:20:02.436Z,988.2626
2023-05-02T02:21:01.769Z,988.2096
2023-05-02T02:22:03.938Z,988.2609
2023-05-02T02:23:01.730Z,988.2255
2023-05-02T02:24:02.176Z,988.3299
2023-05-02T02:25:01.615Z,988.2336
2023-05-02T02:26:02.094Z,988.3598
2023-05-02T02:27:03.215Z,988.339
2023-05-02T02:28:02.178Z,988.5391
2023-05-02T02:29:01.459Z,988.5037
2023-05-02T02:30:02.195Z,988.5681
2023-05-02T02:31:01.400Z,988.6262
2023-05-02T02:32:01.858Z,988.6141
2023-05-02T02:33:01.478Z,988.4936
2023-05-02T02:34:01.772Z,988.53
2023-05-02T02:35:03.938Z,988.5232
2023-05-02T02:36:01.682Z,988.5381
2023-05-02T02:37:02.171Z,988.5462
2023-05-02T02:38:03.310Z,988.5611
2023-05-02T02:39:02.116Z,988.5975
2023-05-02T02:40:01.948Z,988.4559
2023-05-02T02:41:02.098Z,988.7416
2023-05-02T02:42:03.203Z,988.5494
2023-05-02T02:43:02.034Z,988.4991
2023-05-02T02:44:01.446Z,988.649
2023-05-02T02:45:01.944Z,988.6065
2023-05-02T02:46:01.474Z,988.5857
2023-05-02T02:47:01.849Z,988.8577
2023-05-02T02:48:01.360Z,988.6594
2023-05-02T02:49:01.779Z,988.8878
2023-05-02T02:50:02.506Z,988.817
2023-05-02T02:51:03.368Z,988.817
2023-05-02T02:52:03.841Z,988.6879
2023-05-02T02:53:01.721Z,988.6441
2023-05-02T02:54:04.442Z,988.6509
2023-05-02T02:55:01.594Z,988.6935
2023-05-02T02:56:02.079Z,988.7149
2023-05-02T02:57:03.195Z,988.8155
2023-05-02T02:58:02.033Z,988.8524
2023-05-02T02:59:01.458Z,988.817
2023-05-02T03:00:03.626Z,988.8456
2023-05-02T03:01:01.444Z,988.817
2023-05-02T03:02:02.081Z,988.8742
2023-05-02T03:03:01.540Z,988.8524
2023-05-02T03:04:01.894Z,988.8878
2023-05-02T03:05:02.331Z,989.0086
2023-05-02T03:06:01.799Z,988.9869
2023-05-02T03:07:02.255Z,988.9869
2023-05-02T03:08:01.775Z,988.9869
2023-05-02T03:09:02.233Z,988.9869
2023-05-02T03:10:02.079Z,988.7515
2023-05-02T03:11:02.258Z,988.9515
2023-05-02T03:12:02.007Z,988.8742
2023-05-02T03:13:01.925Z,988.9105
2023-05-02T03:14:01.780Z,988.8822
2023-05-02T03:15:02.241Z,988.8537
2023-05-02T03:16:01.810Z,988.8822
2023-05-02T03:17:02.249Z,988.9468
2023-05-02T03:18:01.762Z,988.9334
2023-05-02T03:19:02.165Z,989.0694
2023-05-02T03:20:01.868Z,989.0051
2023-05-02T03:21:03.764Z,989.0132
2023-05-02T03:22:01.534Z,989.0988
2023-05-02T03:23:02.006Z,989.1274
2023-05-02T03:24:01.523Z,988.8931
2023-05-02T03:25:01.998Z,989.0358
2023-05-02T03:26:03.118Z,989.0153
2023-05-02T03:27:01.956Z,989.1155
2023-05-02T03:28:01.351Z,989.0665
2023-05-02T03:29:01.922Z,989.1955
2023-05-02T03:30:01.595Z,989.1393
2023-05-02T03:31:03.614Z,989.1325
2023-05-02T03:32:02.424Z,989.0971
2023-05-02T03:33:01.837Z,989.0984
2023-05-02T03:34:02.237Z,989.0698
2023-05-02T03:35:01.750Z,989.0767
2023-05-02T03:36:02.231Z,989.1542
2023-05-02T03:37:03.462Z,989.3331
2023-05-02T03:38:02.170Z,989.1771
2023-05-02T03:39:01.612Z,989.1554
2023-05-02T03:40:02.372Z,989.1337
2023-05-02T03:41:01.605Z,989.1052
2023-05-02T03:42:02.088Z,989.2618
2023-05-02T03:43:01.559Z,989.1334
2023-05-02T03:44:03.696Z,989.3254
2023-05-02T03:45:03.123Z,989.184
2023-05-02T03:46:01.913Z,989.3049
2023-05-02T03:47:01.488Z,989.0984
2023-05-02T03:48:03.662Z,989.184
2023-05-02T03:49:01.363Z,989.3189
2023-05-02T03:50:02.102Z,989.3254
2023-05-02T03:51:01.388Z,989.3323
2023-05-02T03:52:01.856Z,989.2683
2023-05-02T03:53:02.332Z,989.2466
2023-05-02T03:54:01.773Z,989.3323
2023-05-02T03:55:02.262Z,989.282
2023-05-02T03:56:01.705Z,989.3745
2023-05-02T03:57:02.253Z,989.4523
2023-05-02T03:58:01.690Z,989.3667
2023-05-02T03:59:03.838Z,989.4089
2023-05-02T04:00:03.409Z,989.2526
2023-05-02T04:01:02.104Z,989.466
2023-05-02T04:02:01.654Z,989.3519
2023-05-02T04:03:02.136Z,989.5368
2023-05-02T04:04:01.561Z,989.5653
2023-05-02T04:05:01.999Z,989.4512
2023-05-02T04:06:03.282Z,989.5516
2023-05-02T04:07:02.007Z,989.5094
2023-05-02T04:08:01.608Z,989.5802
2023-05-02T04:09:02.170Z,989.4238
2023-05-02T04:10:02.464Z,989.6087
2023-05-02T04:11:01.524Z,989.5094
2023-05-02T04:12:02.187Z,989.6087
2023-05-02T04:13:01.767Z,989.5594
2023-05-02T04:14:03.513Z,989.7916
2023-05-02T04:15:02.323Z,989.595
2023-05-02T04:16:01.765Z,989.4946
2023-05-02T04:17:02.320Z,989.8978
2023-05-02T04:18:03.477Z,989.8978
2023-05-02T04:19:01.521Z,989.6007
2023-05-02T04:20:05.071Z,989.762
2023-05-02T04:21:01.842Z,989.7049
2023-05-02T04:22:01.950Z,989.579
2023-05-02T04:23:03.039Z,989.6903
2023-05-02T04:24:01.853Z,989.7189
2023-05-02T04:25:02.335Z,989.7965
2023-05-02T04:26:01.759Z,989.8959
2023-05-02T04:27:03.960Z,989.6883
2023-05-02T04:28:01.716Z,989.6883
2023-05-02T04:29:03.844Z,989.8379
2023-05-02T04:30:01.914Z,989.8379
2023-05-02T04:31:02.118Z,989.6404
2023-05-02T04:32:01.545Z,989.7877
2023-05-02T04:33:03.746Z,989.8231
2023-05-02T04:34:01.442Z,989.9227
2023-05-02T04:35:01.972Z,989.9513
2023-05-02T04:36:01.365Z,989.8219
2023-05-02T04:37:01.837Z,989.7574
2023-05-02T04:38:01.364Z,989.8496
2023-05-02T04:39:01.886Z,989.9059
2023-05-02T04:40:02.470Z,989.9779
2023-05-02T04:41:08.548Z,989.9059
2023-05-02T04:42:03.848Z,989.9765
2023-05-02T04:43:03.401Z,989.8839
2023-05-02T04:44:02.154Z,989.8554
2023-05-02T04:45:01.591Z,990.0907
2023-05-02T04:46:02.116Z,990.133
2023-05-02T04:47:01.522Z,989.9902
2023-05-02T04:48:02.091Z,989.9765
2023-05-02T04:49:01.459Z,990.1616
2023-05-02T04:50:02.201Z,990.133
2023-05-02T04:51:03.122Z,990.083
2023-05-02T04:52:01.844Z,989.9688
2023-05-02T04:53:01.359Z,989.9902
2023-05-02T04:54:01.851Z,989.9616
2023-05-02T04:55:02.321Z,990.1116
2023-05-02T04:56:01.758Z,990.261
2023-05-02T04:57:02.257Z,990.0611
2023-05-02T04:58:01.679Z,990.0325
2023-05-02T04:59:02.172Z,989.9688
2023-05-02T05:00:01.890Z,990.0465
2023-05-02T05:01:02.146Z,990.1599
2023-05-02T05:02:02.474Z,990.1165
2023-05-02T05:03:02.163Z,990.0229
2023-05-02T05:04:01.477Z,990.357
2023-05-02T05:05:01.905Z,990.1924
2023-05-02T05:06:03.119Z,990.1058
2023-05-02T05:07:02.074Z,990.155
2023-05-02T05:08:01.520Z,990.2048
2023-05-02T05:09:02.084Z,990.2323
2023-05-02T05:10:01.988Z,990.2526
2023-05-02T05:11:02.198Z,990.3876
2023-05-02T05:12:01.694Z,990.4371
2023-05-02T05:13:02.169Z,990.3503
2023-05-02T05:14:01.680Z,990.2491
2023-05-02T05:15:03.840Z,990.3979
2023-05-02T05:16:03.336Z,990.2904
2023-05-02T05:17:02.159Z,990.4812
2023-05-02T05:18:01.711Z,990.2461
2023-05-02T05:19:03.840Z,990.3377
2023-05-02T05:20:01.953Z,990.5429
2023-05-02T05:21:01.608Z,990.5138
2023-05-02T05:22:02.288Z,990.5199
2023-05-02T05:23:01.744Z,990.4493
2023-05-02T05:24:02.271Z,990.4416
2023-05-02T05:25:03.443Z,990.4485
2023-05-02T05:26:01.362Z,990.5029
2023-05-02T05:27:02.042Z,990.5949
2023-05-02T05:28:01.606Z,990.6729
2023-05-02T05:29:03.781Z,990.7445
2023-05-02T05:30:02.586Z,990.7583
2023-05-02T05:31:01.692Z,990.6003
2023-05-02T05:32:02.308Z,990.6785
2023-05-02T05:33:01.760Z,990.8419
2023-05-02T05:34:02.204Z,990.849
2023-05-02T05:35:01.598Z,990.612
2023-05-02T05:36:02.091Z,990.6754
2023-05-02T05:37:03.208Z,990.6181
2023-05-02T05:38:02.091Z,990.7534
2023-05-02T05:39:01.524Z,990.6884
2023-05-02T05:40:02.517Z,990.6669
2023-05-02T05:41:01.506Z,990.7449
2023-05-02T05:42:02.006Z,990.7733
2023-05-02T05:43:01.472Z,990.8726
2023-05-02T05:44:01.917Z,990.9013
2023-05-02T05:45:01.616Z,990.7006
2023-05-02T05:46:03.848Z,990.8726
2023-05-02T05:47:01.727Z,990.8439
2023-05-02T05:48:01.513Z,990.8726
2023-05-02T05:49:02.104Z,990.8726
2023-05-02T05:50:01.885Z,990.8439
2023-05-02T05:51:02.244Z,990.8726
2023-05-02T05:52:01.773Z,990.8726
2023-05-02T05:53:02.364Z,990.8726
2023-05-02T05:54:01.951Z,990.9872
2023-05-02T05:55:01.922Z,991.0159
2023-05-02T05:56:01.543Z,990.9299
2023-05-02T05:57:02.162Z,990.8726
2023-05-02T05:58:01.705Z,990.9586
2023-05-02T05:59:02.185Z,990.9299
2023-05-02T06:00:02.354Z,991.0732
2023-05-02T06:01:03.397Z,990.9307
2023-05-02T06:02:01.607Z,991.1879
2023-05-02T06:03:02.390Z,991.1019
2023-05-02T06:04:02.104Z,991.0885
2023-05-02T06:05:01.905Z,990.9307
2023-05-02T06:06:01.420Z,991.1305
2023-05-02T06:07:01.960Z,991.0732
2023-05-02T06:08:03.466Z,991.1019
2023-05-02T06:09:01.504Z,991.2165
2023-05-02T06:10:02.340Z,991.1303
2023-05-02T06:11:01.543Z,991.1303
2023-05-02T06:12:02.030Z,991.0443
2023-05-02T06:13:01.546Z,991.1876
2023-05-02T06:14:02.027Z,991.18
2023-05-02T06:15:01.680Z,991.1721
2023-05-02T06:16:03.866Z,991.1931
2023-05-02T06:17:01.710Z,991.2779
2023-05-02T06:18:02.199Z,991.3275
2023-05-02T06:19:01.686Z,991.3701
2023-05-02T06:20:03.940Z,991.3772
2023-05-02T06:21:01.957Z,991.3266
2023-05-02T06:22:01.366Z,991.2902
2023-05-02T06:23:02.103Z,991.4257
2023-05-02T06:24:03.306Z,991.3677
2023-05-02T06:25:02.263Z,991.2955
2023-05-02T06:26:01.786Z,991.4923
2023-05-02T06:27:02.334Z,991.4449
2023-05-02T06:28:03.618Z,991.542
2023-05-02T06:29:01.485Z,991.5917
2023-05-02T06:30:02.591Z,991.4908
2023-05-02T06:31:01.636Z,991.5047
2023-05-02T06:32:03.776Z,991.4069
2023-05-02T06:33:01.572Z,991.4829
2023-05-02T06:34:02.047Z,991.5482
2023-05-02T06:35:01.440Z,991.4923
2023-05-02T06:36:03.940Z,991.6149
2023-05-02T06:37:01.860Z,991.5149
2023-05-02T06:38:02.343Z,991.7791
2023-05-02T06:39:01.827Z,991.7791
2023-05-02T06:40:02.599Z,991.5575
2023-05-02T06:41:01.716Z,991.6799
2023-05-02T06:42:03.926Z,991.6512
2023-05-02T06:43:01.744Z,991.573
2023-05-02T06:44:02.158Z,991.8598
2023-05-02T06:45:03.257Z,991.8314
2023-05-02T06:46:03.768Z,991.8816
2023-05-02T06:47:03.228Z,991.7668
2023-05-02T06:48:03.764Z,991.8314
2023-05-02T06:49:03.113Z,991.8166
2023-05-02T06:50:03.733Z,991.7444
2023-05-02T06:51:01.362Z,991.8939
2023-05-02T06:52:01.845Z,991.7791
2023-05-02T06:54:01.776Z,991.7639
2023-05-02T06:55:02.252Z,991.8925
2023-05-02T06:56:01.751Z,991.849
2023-05-02T06:57:02.242Z,991.9717
2023-05-02T06:58:01.684Z,991.9856
2023-05-02T06:59:02.195Z,992.0212
2023-05-02T07:00:02.070Z,992.0066
2023-05-02T07:01:03.817Z,992.064
2023-05-02T07:02:04.441Z,992.0636
2023-05-02T07:03:02.033Z,992.056
2023-05-02T07:04:01.569Z,992.0481
2023-05-02T07:05:02.024Z,992.2058
2023-05-02T07:06:01.571Z,992.0194
2023-05-02T07:07:02.007Z,992.1264
2023-05-02T07:08:03.203Z,992.1327
2023-05-02T07:09:01.935Z,992.1103
2023-05-02T07:10:01.657Z,992.0242
2023-05-02T07:11:01.949Z,992.1314
2023-05-02T07:12:05.316Z,992.1888
2023-05-02T07:13:01.849Z,992.1951
2023-05-02T07:14:02.340Z,992.2308
2023-05-02T07:15:01.788Z,992.3022
2023-05-02T07:16:02.300Z,991.9932
2023-05-02T07:17:01.928Z,992.3022
2023-05-02T07:18:03.951Z,991.9932
2023-05-02T07:19:03.369Z,992.1299
2023-05-02T07:20:02.447Z,992.3309
2023-05-02T07:21:01.643Z,992.3387
2023-05-02T07:22:02.159Z,992.1951
2023-05-02T07:23:01.617Z,992.2665
2023-05-02T07:24:02.083Z,992.1299
2023-05-02T07:25:01.620Z,992.1012
2023-05-02T07:26:06.161Z,992.3379
2023-05-02T07:27:01.525Z,992.3735
2023-05-02T07:28:02.025Z,992.3379
2023-05-02T07:29:01.532Z,992.4092
2023-05-02T07:30:03.787Z,992.2593
2023-05-02T07:31:01.457Z,992.3379
2023-05-02T07:32:02.046Z,992.4164
2023-05-02T07:33:01.508Z,992.3735
2023-05-02T07:34:01.860Z,992.3379
2023-05-02T07:35:01.377Z,992.3735
2023-05-02T07:36:01.853Z,992.2082
2023-05-02T07:37:04.022Z,992.4164
2023-05-02T07:38:01.782Z,992.4527
2023-05-02T07:39:02.258Z,992.431
2023-05-02T07:40:02.118Z,992.4878
2023-05-02T07:41:04.031Z,992.5024
2023-05-02T07:42:03.048Z,992.5452
2023-05-02T07:43:03.488Z,992.6234
2023-05-02T07:44:02.256Z,992.5165
2023-05-02T07:45:01.698Z,992.552
2023-05-02T07:46:03.921Z,992.4147
2023-05-02T07:47:01.692Z,992.4713
2023-05-02T07:48:02.138Z,992.4481
2023-05-02T07:49:01.632Z,992.5337
2023-05-02T07:50:02.367Z,992.4617
2023-05-02T07:51:01.536Z,992.4538
2023-05-02T07:52:02.016Z,992.5688
2023-05-02T07:53:01.467Z,992.5688
2023-05-02T07:54:01.955Z,992.5688
2023-05-02T07:55:01.443Z,992.6037
2023-05-02T07:56:01.856Z,992.6824
2023-05-02T07:57:02.987Z,992.6752
2023-05-02T07:58:01.772Z,992.6682
2023-05-02T07:59:03.573Z,992.6177
2023-05-02T08:00:02.306Z,992.6093
2023-05-02T08:01:02.201Z,992.593
2023-05-02T08:02:03.302Z,992.7075
2023-05-02T08:03:02.200Z,992.8135
2023-05-02T08:04:01.840Z,992.5384
2023-05-02T08:05:02.183Z,992.5367
2023-05-02T08:06:01.565Z,992.5934
2023-05-02T08:07:02.038Z,992.8432
2023-05-02T08:08:03.139Z,992.6766
2023-05-02T08:09:01.940Z,992.5971
2023-05-02T08:10:01.702Z,992.6965
2023-05-02T08:11:01.861Z,992.7325
2023-05-02T08:12:01.305Z,992.7605
2023-05-02T08:13:01.786Z,992.5646
2023-05-02T08:14:02.254Z,992.6933
2023-05-02T08:15:01.720Z,992.7081
2023-05-02T08:16:02.222Z,992.6426
2023-05-02T08:17:01.680Z,992.6997
2023-05-02T08:18:02.164Z,992.6709
2023-05-02T08:19:01.604Z,992.6608
2023-05-02T08:20:02.339Z,992.7375
2023-05-02T08:21:01.572Z,992.7867
2023-05-02T08:22:02.012Z,992.6911
2023-05-02T08:23:01.464Z,992.7332
2023-05-02T08:24:02.188Z,992.7825
2023-05-02T08:25:01.372Z,992.8669
2023-05-02T08:26:03.557Z,992.7721
2023-05-02T08:27:01.295Z,992.8214
2023-05-02T08:28:01.776Z,992.7556
2023-05-02T08:29:02.257Z,992.8581
2023-05-02T08:30:01.790Z,992.9629
2023-05-02T08:31:02.201Z,992.8417
2023-05-02T08:32:03.336Z,992.9389
2023-05-02T08:33:02.154Z,992.9389
2023-05-02T08:34:01.604Z,992.7767
2023-05-02T08:35:02.102Z,992.8411
2023-05-02T08:36:01.547Z,992.8698
2023-05-02T08:37:02.053Z,992.7683
2023-05-02T08:38:01.479Z,993.0845
2023-05-02T08:39:03.696Z,992.9389
2023-05-02T08:40:01.730Z,992.9389
2023-05-02T08:41:03.638Z,992.9629
2023-05-02T08:42:01.367Z,992.8728
2023-05-02T08:43:01.894Z,992.9059
2023-05-02T08:44:02.331Z,992.8833
2023-05-02T08:45:01.843Z,992.8573
2023-05-02T08:46:03.050Z,992.9629
2023-05-02T08:47:03.477Z,992.9284
2023-05-02T08:48:02.291Z,993.0737
2023-05-02T08:49:01.701Z,993.2046
2023-05-02T08:50:02.526Z,993.0041
2023-05-02T08:51:01.680Z,993.2585
2023-05-02T08:52:02.188Z,993.0432
2023-05-02T08:53:01.628Z,993.1233
2023-05-02T08:54:02.095Z,993.1009
2023-05-02T08:55:02.132Z,993.2012
2023-05-02T08:56:02.013Z,993.2657
2023-05-02T08:57:01.542Z,993.1419
2023-05-02T08:58:02.037Z,993.2424
2023-05-02T08:59:01.455Z,993.2059
2023-05-02T09:00:01.925Z,993.2411
2023-05-02T09:01:01.437Z,993.2624
2023-05-02T09:02:01.888Z,993.1757
2023-05-02T09:03:03.193Z,993.2181
2023-05-02T09:04:01.783Z,993.3303
2023-05-02T09:05:02.553Z,993.1231
2023-05-02T09:06:01.855Z,993.3146
2023-05-02T09:07:02.242Z,993.2373
2023-05-02T09:08:01.767Z,993.3134
2023-05-02T09:09:02.260Z,993.3781
2023-05-02T09:10:01.713Z,993.3057
2023-05-02T09:11:02.252Z,993.3062
2023-05-02T09:12:03.370Z,993.4585
2023-05-02T09:13:03.999Z,993.3655
2023-05-02T09:14:01.690Z,993.3866
2023-05-02T09:15:02.173Z,993.3781
2023-05-02T09:16:01.683Z,993.3705
2023-05-02T09:17:02.314Z,993.3781
2023-05-02T09:18:03.381Z,993.3273
2023-05-02T09:19:02.248Z,993.2703
2023-05-02T09:20:03.477Z,993.414
2023-05-02T09:21:02.233Z,993.4937
2023-05-02T09:22:03.531Z,993.427
2023-05-02T09:23:01.519Z,993.3981
2023-05-02T09:24:03.706Z,993.5137
2023-05-02T09:25:01.913Z,993.3544
2023-05-02T09:26:02.186Z,993.4478
2023-05-02T09:27:01.757Z,993.4322
2023-05-02T09:28:03.921Z,993.5401
2023-05-02T09:29:01.934Z,993.4597
2023-05-02T09:30:01.365Z,993.4873
2023-05-02T09:31:02.167Z,993.3498
2023-05-02T09:32:03.232Z,993.4065
2023-05-02T09:33:03.650Z,993.2683
2023-05-02T09:34:01.527Z,993.5429
2023-05-02T09:35:02.204Z,993.4136
2023-05-02T09:36:01.594Z,993.3197
2023-05-02T09:37:03.714Z,993.4986
2023-05-02T09:38:01.569Z,993.5613
2023-05-02T09:39:02.157Z,993.458
2023-05-02T09:40:02.523Z,993.3774
2023-05-02T09:41:01.841Z,993.3841
2023-05-02T09:42:04.090Z,993.4696
2023-05-02T09:43:01.929Z,993.4131
2023-05-02T09:44:03.069Z,993.4475
2023-05-02T09:45:02.161Z,993.6049
2023-05-02T09:46:01.524Z,993.418
2023-05-02T09:47:02.001Z,993.418
2023-05-02T09:48:01.519Z,993.4484
2023-05-02T09:49:01.927Z,993.5628
2023-05-02T09:50:01.620Z,993.5252
2023-05-02T09:51:02.188Z,993.5534
2023-05-02T09:52:01.820Z,993.467
2023-05-02T09:53:01.534Z,993.5683
2023-05-02T09:54:02.149Z,993.6273
2023-05-02T09:55:01.901Z,993.606
2023-05-02T09:56:01.606Z,993.6701
2023-05-02T09:57:02.043Z,993.5824
2023-05-02T09:58:01.460Z,993.6404
2023-05-02T09:59:01.935Z,993.5103
2023-05-02T10:00:01.386Z,993.7208
2023-05-02T10:01:01.911Z,993.6273
2023-05-02T10:03:01.845Z,993.5683
2023-05-02T10:04:02.315Z,993.6609
2023-05-02T10:05:01.999Z,993.589
2023-05-02T10:06:03.893Z,993.6611
2023-05-02T10:07:01.693Z,993.7686
2023-05-02T10:08:02.326Z,993.6901
2023-05-02T10:09:01.598Z,993.596
2023-05-02T10:10:02.088Z,993.717
2023-05-02T10:11:03.202Z,993.7152
2023-05-02T10:12:02.014Z,993.7645
2023-05-02T10:13:01.501Z,993.8123
2023-05-02T10:14:01.927Z,993.6937
2023-05-02T10:15:01.737Z,993.5338
2023-05-02T10:16:01.918Z,993.6563
2023-05-02T10:17:01.456Z,993.634
2023-05-02T10:18:01.917Z,993.6345
2023-05-02T10:19:02.239Z,993.5628
2023-05-02T10:20:01.785Z,993.6197
2023-05-02T10:21:02.259Z,993.5952
2023-05-02T10:22:01.693Z,993.4853
2023-05-02T10:23:02.214Z,993.564
2023-05-02T10:24:01.608Z,993.5127
2023-05-02T10:25:02.354Z,993.5476
2023-05-02T10:26:01.517Z,993.6327
2023-05-02T10:27:02.010Z,993.5325
2023-05-02T10:28:01.572Z,993.5345
2023-05-02T10:29:02.019Z,993.6941
2023-05-02T10:30:03.120Z,993.5767
2023-05-02T10:31:01.961Z,993.8165
2023-05-02T10:32:01.506Z,993.642
2023-05-02T10:33:01.933Z,993.7803
2023-05-02T10:34:02.350Z,993.8371
2023-05-02T10:35:02.029Z,993.6514
2023-05-02T10:36:02.233Z,993.7552
2023-05-02T10:37:01.680Z,993.605
2023-05-02T10:38:03.852Z,993.7591
2023-05-02T10:39:03.310Z,993.7316
2023-05-02T10:40:02.122Z,993.8123
2023-05-02T10:41:03.298Z,993.9799
2023-05-02T10:42:02.097Z,993.7995
2023-05-02T10:43:03.205Z,993.8215
2023-05-02T10:44:02.014Z,993.8419
2023-05-02T10:45:01.758Z,993.7193
2023-05-02T10:46:03.606Z,993.8071
2023-05-02T10:47:01.525Z,993.8586
2023-05-02T10:48:01.917Z,993.6923
2023-05-02T10:49:01.379Z,993.7069
2023-05-02T10:50:03.442Z,993.6923
2023-05-02T10:51:02.249Z,993.7284
2023-05-02T10:52:01.755Z,993.7069
2023-05-02T10:53:02.262Z,993.6632
2023-05-02T10:54:01.685Z,993.7508
2023-05-02T10:55:02.279Z,993.693
2023-05-02T10:56:01.598Z,993.7367
2023-05-02T10:57:02.107Z,993.7816
2023-05-02T10:58:03.283Z,993.8111
2023-05-02T10:59:03.766Z,993.9851
2023-05-02T11:00:01.525Z,993.9851
2023-05-02T11:01:02.092Z,993.7952
2023-05-02T11:02:04.025Z,993.6792
2023-05-02T11:03:02.837Z,993.8532
2023-05-02T11:04:01.904Z,994.0285
2023-05-02T11:05:02.698Z,993.7983
2023-05-02T11:06:01.694Z,993.7769
2023-05-02T11:07:03.925Z,993.7557
2023-05-02T11:08:01.615Z,993.8711
2023-05-02T11:09:02.156Z,993.8718
2023-05-02T11:10:03.391Z,993.8285
2023-05-02T11:11:03.840Z,993.7629
2023-05-02T11:12:01.673Z,993.8728
2023-05-02T11:13:04.082Z,993.7433
2023-05-02T11:14:01.924Z,993.9237
2023-05-02T11:15:01.658Z,993.7592
2023-05-02T11:16:01.995Z,993.8821
2023-05-02T11:17:03.235Z,993.7657
2023-05-02T11:18:02.022Z,993.7431
2023-05-02T11:19:01.583Z,993.7869
2023-05-02T11:20:02.083Z,993.7077
2023-05-02T11:21:01.616Z,993.7788
2023-05-02T11:22:02.076Z,993.844
2023-05-02T11:23:01.592Z,993.8002
2023-05-02T11:24:02.065Z,993.9291
2023-05-02T11:25:01.912Z,993.9433
2023-05-02T11:26:02.065Z,993.7603
2023-05-02T11:27:03.261Z,993.8313
2023-05-02T11:28:02.072Z,993.7508
2023-05-02T11:29:01.533Z,993.7152
2023-05-02T11:30:03.836Z,993.7354
2023-05-02T11:31:03.300Z,993.8716
2023-05-02T11:32:02.106Z,993.8285
2023-05-02T11:33:01.605Z,993.9155
2023-05-02T11:34:02.136Z,993.7491
2023-05-02T11:35:03.313Z,993.8432
2023-05-02T11:36:03.771Z,993.8355
2023-05-02T11:37:01.588Z,993.7993
2023-05-02T11:38:02.141Z,993.8477
2023-05-02T11:39:01.786Z,993.8901
2023-05-02T11:40:02.252Z,993.7803
2023-05-02T11:41:01.746Z,993.6204
2023-05-02T11:42:02.226Z,993.8089
2023-05-02T11:43:01.751Z,993.7132
2023-05-02T11:44:02.305Z,993.6693
2023-05-02T11:45:02.103Z,993.8341
2023-05-02T11:46:01.590Z,993.7299
2023-05-02T11:47:01.874Z,993.6769
2023-05-02T11:48:03.077Z,993.7623
2023-05-02T11:49:01.851Z,993.7153
2023-05-02T11:50:01.288Z,993.8959
2023-05-02T11:51:03.477Z,993.7721